Airfield :
LOGIN :

Register | Disclaimer

   EN    FR    IT 

 










Legend :    VFR   Marginal VFR   IFR   Intensive IFR   Very Intensive IFR
Visi :
Ceiling :
>= 8 km
>= 3000ft
5 to 8 km
1000 to 3000 ft
1500m to 5 km
500 to 1000 ft
800 to 1500m
200 to 500 ft
< 800m
< 200 ft
Symbols :   Thunderstorms  Fog  Heavy snow  Heavy precipitations  Wind > 20 kt
SIGMETs :     Misc.  Thunderstorms  Icing  Turbulence  Mountain Waves  Volcanic Ashes







- Airport Elevation : 39 ft
- IATA code : ANR


EBAW - Anvers / Antwerpen Deurne

CURRENT METAR :
  • 210250Z AUTO 12006KT CAVOK 02/M02 Q1010

EXPIRED METARs :
  • 210220Z AUTO 11007KT CAVOK 03/M01 Q1010
  • 210150Z AUTO 12008KT CAVOK 02/01 Q1009
  • 210120Z AUTO 11007KT 9999 // FEW048/// 03/M01 Q1009
  • 210050Z AUTO 11006KT 9999 // SCT044/// 03/M01 Q1008
  • 210020Z AUTO 11006KT 9999 // BKN031/// 03/M03 Q1008

TAF TAF EBAW
Valid from the 21 at 03:00 until the 21 at 12:00 UTC


210220Z 2103/2112 10005KT 9999 SCT024
PROB30
TEMPO 2103/2108 BKN007 PRO30
TEMPO 2103/2104 4000 SHRASN BKN014
No reported NOTAMs for that airfield.



MET'MAP, your aeronautical weather chart ! - Copyright ORBIFLY December 2007 - Disclaimer

ORBIFLY MET'MAP TEAM :

Programming & Development : Alexandra Zaïnal
Concept & Development : Baudouin d'Aumeries
Co-Development & Prog : Marc-Olivier Méhu
Technical & hardware support : Manuel Goepfert

Contact : metmap@orbifly.com




SOURCES & CREDITS :

   NOAA